createdAt,value
2018-07-05T00:00:54.148Z,19.60
2018-07-05T00:05:08.676Z,19.50
2018-07-05T00:09:23.488Z,19.60
2018-07-05T00:13:38.148Z,19.60
2018-07-05T00:17:52.737Z,19.70
2018-07-05T00:22:07.286Z,19.70
2018-07-05T00:26:21.824Z,19.80
2018-07-05T00:30:36.504Z,19.60
2018-07-05T00:34:50.917Z,19.50
2018-07-05T00:39:05.997Z,19.40
2018-07-05T00:43:20.524Z,19.40
2018-07-05T00:47:35.021Z,19.40
2018-07-05T00:51:49.600Z,19.40
2018-07-05T00:56:04.112Z,19.40
2018-07-05T01:00:18.582Z,19.30
2018-07-05T01:04:33.225Z,19.30
2018-07-05T01:08:47.785Z,19.20
2018-07-05T01:13:02.546Z,19.20
2018-07-05T01:17:17.149Z,19.10
2018-07-05T01:21:31.885Z,18.90
2018-07-05T01:25:46.470Z,18.80
2018-07-05T01:30:01.084Z,18.80
2018-07-05T01:34:15.717Z,18.90
2018-07-05T01:38:30.397Z,19.00
2018-07-05T01:42:45.153Z,19.00
2018-07-05T01:46:59.622Z,19.10
2018-07-05T01:51:14.318Z,19.10
2018-07-05T01:55:28.896Z,19.10
2018-07-05T01:59:43.625Z,19.00
2018-07-05T02:03:58.169Z,19.00
2018-07-05T02:08:12.872Z,18.90
2018-07-05T02:12:27.509Z,18.80
2018-07-05T02:16:42.181Z,18.70
2018-07-05T02:20:56.817Z,18.60
2018-07-05T02:25:11.370Z,18.50
2018-07-05T02:29:25.965Z,18.50
2018-07-05T02:33:40.488Z,18.60
2018-07-05T02:38:00.715Z,18.50
2018-07-05T02:42:15.324Z,18.40
2018-07-05T02:46:29.797Z,18.20
2018-07-05T02:50:44.482Z,18.20
2018-07-05T02:54:59.186Z,18.20
2018-07-05T02:59:13.916Z,18.30
2018-07-05T03:03:29.048Z,18.30
2018-07-05T03:07:43.462Z,18.20
2018-07-05T03:11:58.133Z,18.00
2018-07-05T03:16:12.821Z,18.00
2018-07-05T03:20:27.551Z,18.00
2018-07-05T03:24:42.247Z,17.90
2018-07-05T03:28:56.777Z,17.80
2018-07-05T03:33:11.987Z,17.70
2018-07-05T03:37:26.466Z,17.80
2018-07-05T03:45:50.164Z,18.00
2018-07-05T03:50:04.741Z,18.00
2018-07-05T03:58:28.040Z,18.10
2018-07-05T04:02:42.802Z,18.10
2018-07-05T04:06:57.312Z,17.90
2018-07-05T04:11:11.993Z,17.70
2018-07-05T04:15:26.443Z,17.70
2018-07-05T04:23:54.109Z,17.60
2018-07-05T04:28:08.784Z,17.60
2018-07-05T04:32:23.347Z,17.50
2018-07-05T04:36:38.133Z,17.70
2018-07-05T04:40:52.774Z,17.80
2018-07-05T04:45:07.493Z,17.90
2018-07-05T04:49:22.020Z,18.00
2018-07-05T04:53:36.683Z,18.10
2018-07-05T04:57:51.168Z,18.20
2018-07-05T05:02:05.836Z,18.20
2018-07-05T05:06:20.651Z,18.30
2018-07-05T05:10:35.920Z,18.50
2018-07-05T05:14:50.487Z,18.50
2018-07-05T05:19:05.260Z,18.50
2018-07-05T05:23:19.921Z,18.40
2018-07-05T05:27:34.624Z,18.60
2018-07-05T05:31:49.990Z,18.60
2018-07-05T05:36:04.452Z,18.50
2018-07-05T05:40:19.249Z,18.70
2018-07-05T05:44:33.897Z,18.90
2018-07-05T05:48:48.574Z,19.20
2018-07-05T05:53:03.052Z,19.30
2018-07-05T05:57:17.737Z,19.40
2018-07-05T06:01:32.389Z,19.40
2018-07-05T06:05:47.370Z,19.50
2018-07-05T06:10:01.929Z,19.70
2018-07-05T06:14:16.524Z,20.00
2018-07-05T06:18:31.155Z,20.20
2018-07-05T06:22:45.903Z,20.20
2018-07-05T06:27:00.404Z,20.10
2018-07-05T06:31:15.018Z,20.50
2018-07-05T06:39:38.508Z,21.30
2018-07-05T06:43:52.968Z,21.50
2018-07-05T06:48:07.753Z,21.70
2018-07-05T06:52:22.414Z,21.90
2018-07-05T06:56:37.105Z,22.20
2018-07-05T07:00:51.757Z,22.50
2018-07-05T07:05:06.663Z,22.40
2018-07-05T07:09:21.181Z,22.70
2018-07-05T07:13:35.950Z,22.80
2018-07-05T07:17:50.548Z,22.50
2018-07-05T07:22:05.128Z,22.00
2018-07-05T07:26:20.420Z,22.20
2018-07-05T07:34:43.863Z,22.80
2018-07-05T07:38:58.389Z,22.70
2018-07-05T07:43:00.593Z,22.80
2018-07-05T07:51:05.258Z,24.30
2018-07-05T07:59:09.911Z,24.80
2018-07-05T08:03:12.116Z,24.80
2018-07-05T08:07:14.672Z,23.70
2018-07-05T08:11:16.873Z,23.50
2018-07-05T08:19:21.550Z,24.20
2018-07-05T08:23:23.761Z,24.70
2018-07-05T08:27:25.964Z,24.40
2018-07-05T08:31:28.237Z,24.50
2018-07-05T08:35:30.516Z,24.90
2018-07-05T08:39:32.732Z,25.50
2018-07-05T08:43:34.948Z,24.80
2018-07-05T08:47:37.149Z,25.10
2018-07-05T08:51:39.352Z,25.70
2018-07-05T08:55:41.573Z,25.90
2018-07-05T08:59:43.793Z,25.40
2018-07-05T09:03:45.995Z,26.00
2018-07-05T09:07:48.192Z,26.70
2018-07-05T09:11:50.864Z,26.60
2018-07-05T09:15:53.069Z,26.60
2018-07-05T09:19:55.275Z,26.70
2018-07-05T09:23:57.486Z,26.60
2018-07-05T09:27:59.685Z,26.30
2018-07-05T09:32:01.885Z,26.60
2018-07-05T09:36:04.093Z,27.10
2018-07-05T09:40:06.302Z,27.80
2018-07-05T09:44:08.501Z,27.70
2018-07-05T09:48:10.710Z,28.00
2018-07-05T09:52:12.905Z,28.30
2018-07-05T09:56:15.105Z,27.60
2018-07-05T10:00:17.332Z,27.50
2018-07-05T10:04:19.528Z,27.90
2018-07-05T10:12:24.173Z,27.30
2018-07-05T10:16:26.372Z,28.00
2018-07-05T10:24:31.064Z,29.10
2018-07-05T10:28:33.269Z,28.70
2018-07-05T10:32:47.904Z,28.50
2018-07-05T10:36:50.040Z,28.10
2018-07-05T10:41:04.639Z,27.20
2018-07-05T10:45:19.309Z,27.90
2018-07-05T10:49:33.986Z,28.10
2018-07-05T10:57:57.077Z,29.40
2018-07-05T11:02:11.750Z,28.90
2018-07-05T11:06:26.468Z,28.40
2018-07-05T11:10:41.144Z,28.10
2018-07-05T11:14:55.793Z,29.00
2018-07-05T11:19:10.536Z,29.00
2018-07-05T11:23:25.103Z,30.70
2018-07-05T11:27:39.901Z,31.30
2018-07-05T11:36:03.245Z,31.70
2018-07-05T11:40:17.844Z,32.90
2018-07-05T11:44:32.510Z,33.40
2018-07-05T11:48:47.223Z,33.40
2018-07-05T11:53:01.766Z,34.10
2018-07-05T11:57:16.484Z,35.00
2018-07-05T12:01:31.221Z,32.60
2018-07-05T12:05:45.904Z,32.00
2018-07-05T12:14:09.313Z,32.00
2018-07-05T12:18:23.981Z,32.80
2018-07-05T12:22:38.590Z,33.90
2018-07-05T12:26:53.492Z,32.60
2018-07-05T12:31:08.228Z,31.80
2018-07-05T12:35:22.839Z,29.50
2018-07-05T12:39:37.641Z,28.70
2018-07-05T12:43:52.258Z,30.30
2018-07-05T12:48:06.864Z,30.50
2018-07-05T12:52:21.518Z,30.40
2018-07-05T12:56:36.159Z,29.20
2018-07-05T13:00:50.790Z,29.20
2018-07-05T13:05:05.376Z,28.60
2018-07-05T13:13:28.603Z,28.40
2018-07-05T13:17:43.352Z,28.50
2018-07-05T13:21:57.977Z,29.30
2018-07-05T13:26:12.884Z,30.40
2018-07-05T13:30:27.446Z,31.20
2018-07-05T13:34:42.150Z,30.10
2018-07-05T13:43:05.495Z,29.90
2018-07-05T13:47:20.205Z,30.10
2018-07-05T13:51:34.888Z,30.40
2018-07-05T13:55:49.529Z,30.30
2018-07-05T14:00:04.224Z,30.20
2018-07-05T14:04:18.655Z,29.30
2018-07-05T14:08:33.389Z,28.80
2018-07-05T14:16:56.548Z,29.80
2018-07-05T14:21:11.321Z,30.60
2018-07-05T14:25:25.973Z,31.00
2018-07-05T14:29:40.744Z,30.30
2018-07-05T14:33:55.217Z,31.20
2018-07-05T14:38:09.885Z,30.40
2018-07-05T14:42:24.608Z,30.90
2018-07-05T14:46:39.129Z,31.40
2018-07-05T14:55:02.581Z,33.00
2018-07-05T14:59:17.276Z,31.70
2018-07-05T15:07:40.310Z,32.60
2018-07-05T15:11:55.126Z,30.90
2018-07-05T15:16:09.772Z,29.50
2018-07-05T15:20:24.257Z,29.50
2018-07-05T15:24:38.924Z,28.90
2018-07-05T15:28:53.532Z,28.50
2018-07-05T15:33:08.069Z,27.80
2018-07-05T15:37:22.673Z,27.30
2018-07-05T15:41:37.133Z,27.70
2018-07-05T15:45:51.781Z,27.30
2018-07-05T15:50:06.493Z,27.80
2018-07-05T15:54:21.332Z,28.20
2018-07-05T15:58:35.935Z,28.30
2018-07-05T16:02:50.601Z,28.20
2018-07-05T16:07:05.224Z,28.20
2018-07-05T16:11:19.888Z,27.70
2018-07-05T16:15:34.572Z,28.10
2018-07-05T16:19:49.308Z,28.40
2018-07-05T16:24:03.840Z,28.80
2018-07-05T16:28:18.376Z,29.10
2018-07-05T16:32:33.017Z,29.10
2018-07-05T16:36:47.528Z,29.50
2018-07-05T16:41:02.213Z,28.30
2018-07-05T16:45:16.887Z,28.40
2018-07-05T16:49:31.511Z,28.40
2018-07-05T16:53:46.002Z,28.10
2018-07-05T16:58:00.577Z,27.60
2018-07-05T17:02:15.180Z,27.60
2018-07-05T17:10:38.567Z,28.50
2018-07-05T17:14:53.145Z,28.70
2018-07-05T17:19:07.743Z,29.10
2018-07-05T17:23:22.270Z,29.50
2018-07-05T17:27:36.848Z,29.50
2018-07-05T17:31:51.404Z,28.80
2018-07-05T17:36:06.034Z,29.20
2018-07-05T17:40:20.736Z,29.50
2018-07-05T17:44:35.421Z,29.40
2018-07-05T17:48:49.864Z,29.50
2018-07-05T17:53:04.573Z,30.00
2018-07-05T17:57:19.134Z,30.00
2018-07-05T18:01:33.717Z,29.60
2018-07-05T18:05:48.349Z,30.20
2018-07-05T18:10:03.162Z,31.40
2018-07-05T18:14:17.646Z,31.40
2018-07-05T18:22:40.745Z,30.30
2018-07-05T18:31:04.952Z,28.40
2018-07-05T18:35:19.529Z,28.30
2018-07-05T18:39:34.225Z,28.80
2018-07-05T18:43:48.824Z,29.00
2018-07-05T18:48:03.604Z,29.30
2018-07-05T18:52:18.193Z,29.00
2018-07-05T18:56:32.880Z,29.20
2018-07-05T19:00:47.452Z,28.40
2018-07-05T19:05:02.079Z,27.40
2018-07-05T19:09:16.784Z,26.50
2018-07-05T19:13:31.299Z,26.10
2018-07-05T19:17:46.044Z,25.90
2018-07-05T19:22:00.926Z,25.60
2018-07-05T19:26:15.449Z,25.40
2018-07-05T19:30:30.233Z,25.20
2018-07-05T19:34:44.800Z,25.00
2018-07-05T19:38:59.409Z,24.80
2018-07-05T19:43:14.042Z,24.50
2018-07-05T19:47:28.471Z,24.30
2018-07-05T19:51:42.876Z,24.10
2018-07-05T19:55:57.476Z,24.00
2018-07-05T20:00:12.129Z,23.80
2018-07-05T20:04:26.697Z,23.70
2018-07-05T20:08:41.287Z,23.50
2018-07-05T20:12:55.900Z,23.30
2018-07-05T20:17:10.433Z,23.20
2018-07-05T20:21:24.886Z,23.00
2018-07-05T20:25:39.517Z,22.90
2018-07-05T20:29:54.110Z,22.80
2018-07-05T20:34:08.698Z,22.70
2018-07-05T20:38:23.364Z,22.70
2018-07-05T20:42:38.117Z,22.50
2018-07-05T20:46:52.726Z,22.50
2018-07-05T20:51:07.364Z,22.50
2018-07-05T20:55:22.114Z,22.30
2018-07-05T20:59:36.734Z,22.20
2018-07-05T21:03:51.251Z,22.10
2018-07-05T21:08:05.977Z,21.90
2018-07-05T21:12:20.664Z,21.80
2018-07-05T21:16:35.334Z,21.80
2018-07-05T21:20:49.947Z,21.60
2018-07-05T21:25:04.788Z,21.50
2018-07-05T21:29:19.753Z,21.30
2018-07-05T21:33:34.398Z,21.30
2018-07-05T21:37:49.033Z,21.30
2018-07-05T21:42:03.700Z,21.20
2018-07-05T21:46:18.917Z,21.20
2018-07-05T21:50:33.388Z,21.10
2018-07-05T21:54:48.630Z,20.90
2018-07-05T21:59:03.233Z,20.90
2018-07-05T22:03:17.940Z,20.80
2018-07-05T22:07:32.727Z,20.60
2018-07-05T22:11:47.440Z,20.50
2018-07-05T22:16:02.047Z,20.40
2018-07-05T22:20:22.177Z,20.30
2018-07-05T22:24:42.189Z,20.20
2018-07-05T22:34:14.835Z,20.20
2018-07-05T22:42:37.903Z,20.00
2018-07-05T22:46:52.576Z,20.10
2018-07-05T22:51:07.132Z,20.00
2018-07-05T22:55:21.897Z,19.90
2018-07-05T22:59:36.624Z,19.80
2018-07-05T23:03:51.402Z,19.80
2018-07-05T23:08:05.938Z,19.60
2018-07-05T23:12:20.437Z,19.60
2018-07-05T23:16:35.267Z,19.50
2018-07-05T23:20:50.023Z,19.40
2018-07-05T23:25:05.736Z,19.40
2018-07-05T23:29:20.497Z,19.20
2018-07-05T23:33:35.085Z,19.20
2018-07-05T23:37:50.058Z,19.20
2018-07-05T23:42:04.522Z,19.00
2018-07-05T23:46:19.366Z,19.00
2018-07-05T23:50:33.959Z,19.00
2018-07-05T23:54:48.660Z,18.80
2018-07-05T23:59:03.350Z,18.80
